Time;durP1;ratioP1;P1;durP2;ratioP2;P2;SDS_P1;SDS_P2;PMS_P1;PMS_P2;Temp;Humidity;BMP_temperature;BMP_pressure;BME280_temperature;BME280_humidity;BME280_pressure;Samples;Min_cycle;Max_cycle;Signal;HPM_P1;HPM_P2
2021/07/29 00:01:01;;;;;;;5.30;2.73;;;;;;;;;;5118873;28;20509;-54
2021/07/29 00:03:41;;;;;;;8.33;2.73;;;;;;;;;;5121237;28;20453;-56
2021/07/29 00:06:14;;;;;;;31.10;19.90;;;;;;;;;;5115526;28;20431;-54
2021/07/29 00:08:43;;;;;;;164.03;116.40;;;;;;;;;;5116187;28;20438;-54
2021/07/29 00:11:10;;;;;;;4.10;2.77;;;;;;;;;;5115235;28;20445;-56
2021/07/29 00:13:38;;;;;;;4.50;3.17;;;;;;;;;;5115836;28;20461;-55
2021/07/29 00:16:26;;;;;;;20.33;9.57;;;;;;;;;;5116211;28;20490;-51
2021/07/29 00:19:05;;;;;;;7.50;3.67;;;;;;;;;;5130076;28;20480;-50
2021/07/29 00:21:35;;;;;;;18.17;10.50;;;;;;;;;;5136243;28;20478;-54
2021/07/29 00:24:02;;;;;;;39.10;26.10;;;;;;;;;;5136852;28;20453;-52
2021/07/29 00:26:30;;;;;;;21.80;11.97;;;;;;;;;;5136625;28;20454;-50
2021/07/29 00:29:07;;;;;;;14.37;8.30;;;;;;;;;;5136955;28;20475;-52
2021/07/29 00:31:35;;;;;;;7.07;3.77;;;;;;;;;;5129666;28;20447;-56
2021/07/29 00:34:02;;;;;;;5.60;3.60;;;;;;;;;;5136584;28;20461;-51
2021/07/29 00:36:42;;;;;;;11.07;8.37;;;;;;;;;;5136479;28;20446;-52
2021/07/29 00:39:09;;;;;;;8.60;4.67;;;;;;;;;;5136731;28;20461;-54
2021/07/29 00:41:36;;;;;;;18.87;12.50;;;;;;;;;;5138828;28;20497;-56
2021/07/29 00:44:08;;;;;;;14.80;10.43;;;;;;;;;;5140381;27;20438;-56
2021/07/29 00:46:35;;;;;;;8.53;4.23;;;;;;;;;;5139643;28;20488;-56
2021/07/29 00:49:05;;;;;;;6.50;4.30;;;;;;;;;;5140552;28;20468;-51
2021/07/29 00:51:44;;;;;;;4.93;3.10;;;;;;;;;;5140323;28;20429;-55
2021/07/29 00:54:11;;;;;;;4.33;2.97;;;;;;;;;;5140107;28;20438;-51
2021/07/29 00:56:38;;;;;;;4.73;2.97;;;;;;;;;;5139928;28;20452;-56
2021/07/29 00:59:09;;;;;;;10.40;6.40;;;;;;;;;;5139782;28;20442;-49
2021/07/29 01:01:36;;;;;;;5.00;2.70;;;;;;;;;;5139443;28;20485;-53
2021/07/29 01:04:03;;;;;;;9.50;5.50;;;;;;;;;;5140147;28;20459;-51
2021/07/29 01:06:37;;;;;;;4.73;3.23;;;;;;;;;;5139707;27;20453;-54
2021/07/29 01:09:08;;;;;;;22.37;14.60;;;;;;;;;;5140126;28;20457;-51
2021/07/29 01:11:35;;;;;;;20.37;16.67;;;;;;;;;;5139787;28;20472;-56
2021/07/29 01:14:10;;;;;;;5.77;3.17;;;;;;;;;;5139857;28;20452;-52
2021/07/29 01:16:38;;;;;;;4.07;3.00;;;;;;;;;;5139688;28;20463;-54
2021/07/29 01:19:06;;;;;;;8.20;5.93;;;;;;;;;;5139534;28;20482;-57
2021/07/29 01:24:41;;;;;;;6.50;4.67;;;;;;;;;;5119658;28;20438;-55
2021/07/29 01:27:08;;;;;;;9.37;4.10;;;;;;;;;;5118911;28;20460;-53
2021/07/29 01:29:58;;;;;;;49.27;36.73;;;;;;;;;;5119215;28;20452;-55
2021/07/29 01:32:26;;;;;;;15.20;9.97;;;;;;;;;;5119421;28;20659;-53
2021/07/29 01:34:54;;;;;;;10.77;5.53;;;;;;;;;;5119242;28;20441;-54
2021/07/29 01:37:47;;;;;;;72.07;52.80;;;;;;;;;;5119366;28;20456;-58
2021/07/29 01:40:17;;;;;;;9.73;5.17;;;;;;;;;;5128603;28;20462;-58
2021/07/29 01:42:44;;;;;;;19.63;16.67;;;;;;;;;;5139575;28;20470;-56
2021/07/29 01:45:31;;;;;;;19.93;13.70;;;;;;;;;;5139662;28;20490;-55
2021/07/29 01:47:58;;;;;;;130.23;107.50;;;;;;;;;;5138034;28;20525;-57
2021/07/29 01:50:25;;;;;;;109.00;86.40;;;;;;;;;;5139512;28;20442;-55
2021/07/29 01:53:00;;;;;;;12.00;9.90;;;;;;;;;;5139090;28;20443;-53
2021/07/29 01:55:29;;;;;;;51.20;34.63;;;;;;;;;;5121770;28;20573;-56
2021/07/29 01:57:56;;;;;;;8.40;4.50;;;;;;;;;;5139083;28;20438;-56
2021/07/29 02:00:32;;;;;;;11.20;9.30;;;;;;;;;;5138306;28;20470;-59
2021/07/29 02:03:02;;;;;;;16.50;11.10;;;;;;;;;;5138328;28;20490;-57
2021/07/29 02:05:29;;;;;;;13.30;6.70;;;;;;;;;;5138776;28;20469;-53
2021/07/29 02:07:56;;;;;;;7.57;5.23;;;;;;;;;;5138609;28;20449;-53
2021/07/29 02:10:23;;;;;;;10.40;4.77;;;;;;;;;;5139046;28;20432;-52
2021/07/29 02:12:56;;;;;;;4.97;3.20;;;;;;;;;;5138762;28;20447;-52
2021/07/29 02:15:24;;;;;;;5.40;3.77;;;;;;;;;;5127817;28;20442;-57
2021/07/29 02:17:51;;;;;;;8.37;3.33;;;;;;;;;;5118011;28;20458;-57
2021/07/29 02:20:49;;;;;;;5.67;3.87;;;;;;;;;;5118416;28;20467;-54
2021/07/29 02:23:17;;;;;;;5.33;2.90;;;;;;;;;;5135871;28;20482;-51
2021/07/29 02:25:46;;;;;;;6.30;3.30;;;;;;;;;;5138765;28;20454;-57
2021/07/29 02:28:35;;;;;;;7.30;3.53;;;;;;;;;;5138426;28;20742;-54
2021/07/29 02:31:06;;;;;;;5.60;3.00;;;;;;;;;;5136717;28;20494;-56
2021/07/29 02:33:33;;;;;;;6.10;4.93;;;;;;;;;;5138303;28;20442;-57
2021/07/29 02:36:13;;;;;;;7.63;5.40;;;;;;;;;;5137326;28;20442;-56
2021/07/29 02:38:41;;;;;;;7.90;2.90;;;;;;;;;;5135925;28;20490;-55
2021/07/29 02:41:08;;;;;;;9.67;4.27;;;;;;;;;;5138274;28;20438;-50
2021/07/29 02:43:50;;;;;;;6.53;2.90;;;;;;;;;;5137888;28;20490;-51
2021/07/29 02:46:18;;;;;;;9.80;3.70;;;;;;;;;;5131251;28;20438;-56
2021/07/29 02:48:45;;;;;;;5.10;3.77;;;;;;;;;;5138274;28;20434;-56
2021/07/29 02:51:23;;;;;;;6.63;3.60;;;;;;;;;;5131642;28;20435;-56
2021/07/29 02:53:51;;;;;;;7.10;3.87;;;;;;;;;;5124942;28;20483;-54
2021/07/29 02:56:18;;;;;;;4.90;3.83;;;;;;;;;;5133813;28;20452;-51
2021/07/29 02:59:10;;;;;;;6.03;3.10;;;;;;;;;;5134885;28;20456;-55
2021/07/29 03:01:39;;;;;;;8.47;4.17;;;;;;;;;;5114465;28;20505;-56
2021/07/29 03:04:06;;;;;;;12.10;4.50;;;;;;;;;;5129602;28;20481;-57
2021/07/29 03:06:46;;;;;;;7.50;3.53;;;;;;;;;;5125029;28;20461;-55
2021/07/29 03:09:13;;;;;;;5.80;3.80;;;;;;;;;;5132869;28;20521;-56
2021/07/29 03:11:41;;;;;;;7.83;3.60;;;;;;;;;;5136873;28;20450;-51
2021/07/29 03:14:27;;;;;;;6.73;3.60;;;;;;;;;;5137101;28;20450;-52
2021/07/29 03:16:56;;;;;;;12.00;4.27;;;;;;;;;;5137098;28;20485;-52
2021/07/29 03:19:23;;;;;;;5.73;3.70;;;;;;;;;;5137466;28;20458;-56
2021/07/29 03:22:10;;;;;;;6.43;3.53;;;;;;;;;;5137497;28;20459;-51
2021/07/29 03:24:37;;;;;;;6.40;3.30;;;;;;;;;;5135241;28;20538;-56
2021/07/29 03:27:05;;;;;;;5.40;3.53;;;;;;;;;;5137294;28;20465;-57
2021/07/29 03:29:34;;;;;;;8.10;3.50;;;;;;;;;;5137337;28;20454;-58
2021/07/29 03:32:04;;;;;;;6.17;3.30;;;;;;;;;;5125072;28;20462;-57
2021/07/29 03:34:32;;;;;;;7.43;4.63;;;;;;;;;;5116461;28;20446;-56
2021/07/29 03:37:09;;;;;;;5.30;3.60;;;;;;;;;;5116249;28;20730;-57
2021/07/29 03:39:36;;;;;;;6.60;3.87;;;;;;;;;;5125692;28;20442;-56
2021/07/29 03:42:05;;;;;;;6.83;2.90;;;;;;;;;;5136646;28;20461;-57
2021/07/29 03:45:03;;;;;;;9.73;3.30;;;;;;;;;;5136882;28;20481;-56
2021/07/29 03:47:33;;;;;;;3.93;3.03;;;;;;;;;;5134706;28;20562;-54
2021/07/29 03:50:00;;;;;;;6.47;3.53;;;;;;;;;;5136651;28;20458;-55
2021/07/29 03:52:28;;;;;;;7.00;3.70;;;;;;;;;;5136746;28;20470;-57
2021/07/29 03:54:55;;;;;;;4.73;3.37;;;;;;;;;;5136665;28;20430;-56
2021/07/29 03:57:25;;;;;;;7.00;3.50;;;;;;;;;;5136126;28;20465;-58
2021/07/29 03:59:53;;;;;;;4.50;3.13;;;;;;;;;;5136706;27;20452;-56
2021/07/29 04:02:21;;;;;;;6.40;3.00;;;;;;;;;;5136234;28;20470;-57
2021/07/29 04:05:01;;;;;;;4.53;3.50;;;;;;;;;;5131477;28;20487;-56
2021/07/29 04:07:28;;;;;;;5.30;3.60;;;;;;;;;;5136784;28;20442;-54
2021/07/29 04:10:01;;;;;;;5.80;3.03;;;;;;;;;;5131957;28;20434;-59
2021/07/29 04:15:37;;;;;;;7.50;3.90;;;;;;;;;;5132813;28;20460;-59
2021/07/29 04:18:23;;;;;;;22.67;8.10;;;;;;;;;;5139008;28;20453;-57
2021/07/29 04:21:22;;;;;;;6.17;3.43;;;;;;;;;;5139933;28;20458;-57
2021/07/29 04:23:50;;;;;;;5.03;3.73;;;;;;;;;;5122212;28;20496;-55
2021/07/29 04:26:25;;;;;;;7.20;3.60;;;;;;;;;;5125240;28;20442;-57
2021/07/29 04:28:58;;;;;;;5.93;3.10;;;;;;;;;;5134716;28;20489;-59
2021/07/29 04:31:30;;;;;;;4.43;3.10;;;;;;;;;;5122493;28;20454;-55
2021/07/29 04:34:03;;;;;;;5.80;3.23;;;;;;;;;;5139603;28;20484;-58
2021/07/29 04:36:31;;;;;;;4.83;3.30;;;;;;;;;;5112323;28;20439;-56
2021/07/29 04:39:04;;;;;;;5.10;3.37;;;;;;;;;;5139775;28;20465;-57
2021/07/29 04:41:44;;;;;;;5.77;3.00;;;;;;;;;;5139572;28;20520;-57
2021/07/29 04:44:12;;;;;;;6.53;3.17;;;;;;;;;;5140216;27;20501;-57
2021/07/29 04:46:40;;;;;;;5.10;3.07;;;;;;;;;;5139977;28;20483;-55
2021/07/29 04:49:08;;;;;;;7.67;4.67;;;;;;;;;;5139689;28;20438;-59
2021/07/29 04:51:35;;;;;;;16.83;3.37;;;;;;;;;;5139357;28;20451;-57
2021/07/29 04:54:11;;;;;;;5.43;3.27;;;;;;;;;;5138066;28;20454;-57
2021/07/29 04:56:50;;;;;;;4.93;2.97;;;;;;;;;;5132460;28;20458;-57
2021/07/29 04:59:20;;;;;;;6.53;3.57;;;;;;;;;;5119356;28;20467;-58
2021/07/29 05:01:47;;;;;;;9.10;3.80;;;;;;;;;;5119315;28;20449;-59
2021/07/29 05:04:35;;;;;;;7.23;2.93;;;;;;;;;;5137758;28;20470;-57
2021/07/29 05:07:02;;;;;;;4.93;3.00;;;;;;;;;;5139484;28;20517;-59
2021/07/29 05:09:31;;;;;;;8.40;3.87;;;;;;;;;;5139260;28;20455;-59
2021/07/29 05:12:05;;;;;;;8.13;3.80;;;;;;;;;;5139509;28;20431;-57
2021/07/29 05:14:33;;;;;;;12.50;4.00;;;;;;;;;;5138703;28;20490;-53
2021/07/29 05:17:01;;;;;;;13.70;4.70;;;;;;;;;;5135859;28;20501;-55
2021/07/29 05:19:42;;;;;;;8.40;5.33;;;;;;;;;;5134087;28;20490;-58
2021/07/29 05:22:09;;;;;;;10.00;4.20;;;;;;;;;;5138436;28;20489;-56
2021/07/29 05:24:38;;;;;;;6.67;3.13;;;;;;;;;;5138648;28;20474;-56
2021/07/29 05:27:27;;;;;;;4.70;2.60;;;;;;;;;;5130459;28;20528;-56
2021/07/29 05:29:57;;;;;;;9.07;4.00;;;;;;;;;;5138419;28;20459;-58
2021/07/29 05:32:26;;;;;;;7.23;3.30;;;;;;;;;;5138372;28;20454;-55
2021/07/29 05:35:06;;;;;;;5.07;3.17;;;;;;;;;;5130824;28;20450;-59
2021/07/29 05:37:41;;;;;;;6.30;3.20;;;;;;;;;;5119642;28;20467;-55
2021/07/29 05:40:36;;;;;;;16.23;3.63;;;;;;;;;;5127656;28;20460;-57
2021/07/29 05:43:05;;;;;;;8.83;4.10;;;;;;;;;;5138409;28;20500;-58
2021/07/29 05:45:32;;;;;;;6.10;3.40;;;;;;;;;;5138518;28;20455;-54
2021/07/29 05:48:07;;;;;;;6.10;3.47;;;;;;;;;;5130849;28;20428;-55
2021/07/29 05:50:34;;;;;;;7.63;2.70;;;;;;;;;;5138407;27;20481;-55
2021/07/29 05:53:02;;;;;;;4.27;2.60;;;;;;;;;;5138398;28;20491;-59
2021/07/29 05:58:35;;;;;;;12.37;3.90;;;;;;;;;;5137345;28;20410;-58
2021/07/29 06:01:09;;;;;;;7.13;4.13;;;;;;;;;;5135551;28;20464;-59
2021/07/29 06:03:57;;;;;;;9.90;3.70;;;;;;;;;;5121069;28;20484;-57
2021/07/29 06:06:24;;;;;;;5.43;3.50;;;;;;;;;;5120078;28;20452;-58
2021/07/29 06:08:53;;;;;;;5.40;2.43;;;;;;;;;;5117290;28;20457;-56
2021/07/29 06:11:25;;;;;;;5.47;2.40;;;;;;;;;;5117376;28;20469;-58
2021/07/29 06:13:54;;;;;;;9.00;3.47;;;;;;;;;;5118524;28;20441;-60
2021/07/29 06:16:21;;;;;;;4.80;2.40;;;;;;;;;;5118108;28;20492;-59
2021/07/29 06:19:04;;;;;;;5.77;1.70;;;;;;;;;;5136973;28;20482;-58
2021/07/29 06:21:31;;;;;;;11.07;3.00;;;;;;;;;;5135238;28;20450;-57
2021/07/29 06:27:02;;;;;;;5.57;2.40;;;;;;;;;;5134913;28;20420;-55
2021/07/29 06:29:32;;;;;;;8.20;4.43;;;;;;;;;;5131426;28;20455;-59
2021/07/29 06:32:09;;;;;;;6.37;2.50;;;;;;;;;;5126180;28;20455;-58
2021/07/29 06:34:41;;;;;;;4.97;2.57;;;;;;;;;;5131603;28;20453;-58
2021/07/29 06:37:12;;;;;;;6.33;2.90;;;;;;;;;;5137791;28;20473;-59
2021/07/29 06:39:41;;;;;;;6.20;2.20;;;;;;;;;;5134321;28;20474;-59
2021/07/29 06:42:11;;;;;;;7.33;2.70;;;;;;;;;;5118451;28;20431;-57
2021/07/29 06:44:59;;;;;;;6.10;2.30;;;;;;;;;;5137330;28;20466;-58
2021/07/29 06:50:22;;;;;;;7.37;2.70;;;;;;;;;;5120486;28;20470;-57
2021/07/29 06:52:56;;;;;;;7.00;1.87;;;;;;;;;;5122783;28;20446;-59
2021/07/29 06:55:24;;;;;;;7.50;3.20;;;;;;;;;;5123060;28;20459;-59
2021/07/29 07:04:01;;;;;;;7.10;1.80;;;;;;;;;;5134752;28;20482;-57
2021/07/29 07:07:02;;;;;;;6.90;1.53;;;;;;;;;;5118863;28;20462;-57
2021/07/29 07:09:42;;;;;;;4.23;1.70;;;;;;;;;;5122519;28;20431;-59
2021/07/29 07:12:09;;;;;;;8.43;2.00;;;;;;;;;;5117791;28;20459;-58
2021/07/29 07:14:42;;;;;;;5.47;1.70;;;;;;;;;;5134277;28;20434;-57
2021/07/29 07:17:10;;;;;;;6.50;2.37;;;;;;;;;;5114886;28;20412;-56
2021/07/29 07:19:38;;;;;;;7.03;1.70;;;;;;;;;;5122263;28;20430;-57
2021/07/29 07:22:08;;;;;;;4.87;2.07;;;;;;;;;;5129530;28;20447;-58
2021/07/29 07:24:36;;;;;;;4.10;1.70;;;;;;;;;;5115571;28;20558;-55
2021/07/29 07:27:05;;;;;;;5.90;2.33;;;;;;;;;;5116097;28;20459;-57
2021/07/29 07:29:33;;;;;;;5.93;2.00;;;;;;;;;;5119197;28;20760;-58
2021/07/29 07:32:01;;;;;;;5.93;2.50;;;;;;;;;;5124778;28;20450;-59
2021/07/29 07:34:48;;;;;;;5.60;2.60;;;;;;;;;;5117159;28;20455;-59
2021/07/29 07:37:19;;;;;;;5.53;2.17;;;;;;;;;;5114899;28;20510;-58
2021/07/29 07:39:48;;;;;;;6.43;2.43;;;;;;;;;;5117786;28;20483;-59
2021/07/29 07:42:25;;;;;;;11.30;2.33;;;;;;;;;;5125319;28;20436;-58
2021/07/29 07:44:56;;;;;;;4.83;1.73;;;;;;;;;;5115286;28;20478;-57
2021/07/29 07:47:26;;;;;;;5.87;2.50;;;;;;;;;;5114850;28;20504;-57
2021/07/29 07:49:56;;;;;;;6.43;2.57;;;;;;;;;;5116547;28;20526;-58
2021/07/29 07:52:25;;;;;;;5.67;1.73;;;;;;;;;;5127727;28;20438;-59
2021/07/29 07:54:53;;;;;;;5.60;2.07;;;;;;;;;;5139140;28;20442;-58
2021/07/29 07:57:40;;;;;;;13.87;2.30;;;;;;;;;;5139925;28;20481;-57
2021/07/29 08:00:09;;;;;;;4.60;1.97;;;;;;;;;;5126086;28;20541;-57
2021/07/29 08:02:39;;;;;;;6.80;2.37;;;;;;;;;;5138298;28;20466;-57
2021/07/29 08:05:26;;;;;;;6.77;2.50;;;;;;;;;;5122429;27;20479;-57
2021/07/29 08:07:57;;;;;;;4.57;2.03;;;;;;;;;;5119219;28;20443;-59
2021/07/29 08:10:24;;;;;;;5.00;2.20;;;;;;;;;;5119402;28;20511;-54
2021/07/29 08:12:59;;;;;;;8.97;2.60;;;;;;;;;;5119422;28;20451;-54
2021/07/29 08:15:27;;;;;;;5.17;2.50;;;;;;;;;;5122363;28;20494;-57
2021/07/29 08:17:58;;;;;;;5.70;1.90;;;;;;;;;;5135651;28;20430;-57
2021/07/29 08:20:32;;;;;;;4.00;2.03;;;;;;;;;;5130211;28;20823;-59
2021/07/29 08:23:03;;;;;;;6.40;2.30;;;;;;;;;;5139663;28;20475;-57
2021/07/29 08:25:30;;;;;;;5.23;2.33;;;;;;;;;;5125720;28;20459;-59
2021/07/29 08:27:58;;;;;;;6.00;3.33;;;;;;;;;;5139296;28;20442;-59
2021/07/29 08:30:25;;;;;;;7.40;2.47;;;;;;;;;;5131219;28;20450;-55
2021/07/29 08:32:53;;;;;;;4.23;1.90;;;;;;;;;;5139447;28;20442;-52
2021/07/29 08:35:24;;;;;;;8.77;2.50;;;;;;;;;;5139682;28;20458;-56
2021/07/29 08:37:52;;;;;;;6.03;2.70;;;;;;;;;;5138352;28;20516;-59
2021/07/29 08:40:21;;;;;;;5.63;2.60;;;;;;;;;;5138101;28;20450;-57
2021/07/29 08:43:22;;;;;;;4.20;1.60;;;;;;;;;;5138099;28;20458;-57
2021/07/29 08:45:52;;;;;;;4.97;2.20;;;;;;;;;;5138274;28;20489;-59
2021/07/29 08:48:45;;;;;;;5.50;2.10;;;;;;;;;;5137390;28;20455;-56
2021/07/29 08:51:12;;;;;;;4.80;1.70;;;;;;;;;;5137968;28;20462;-58
2021/07/29 08:53:40;;;;;;;5.70;1.53;;;;;;;;;;5138522;28;20506;-58
2021/07/29 08:56:44;;;;;;;4.70;2.30;;;;;;;;;;5137832;27;20415;-56
2021/07/29 08:59:16;;;;;;;5.87;2.37;;;;;;;;;;5137368;28;20446;-58
2021/07/29 09:01:44;;;;;;;12.63;3.27;;;;;;;;;;5130526;28;20450;-53
2021/07/29 09:04:22;;;;;;;4.67;1.80;;;;;;;;;;5135134;28;20525;-57
2021/07/29 09:06:54;;;;;;;6.67;2.00;;;;;;;;;;5132689;28;20502;-55
2021/07/29 09:09:35;;;;;;;6.40;2.10;;;;;;;;;;5137390;28;20714;-58
2021/07/29 09:12:24;;;;;;;3.80;1.83;;;;;;;;;;5124215;28;20447;-58
2021/07/29 09:14:55;;;;;;;5.60;1.43;;;;;;;;;;5114191;28;20478;-57
2021/07/29 09:17:24;;;;;;;5.53;1.70;;;;;;;;;;5131131;28;20456;-58
2021/07/29 09:20:11;;;;;;;5.23;1.63;;;;;;;;;;5116181;28;20474;-62
2021/07/29 09:22:38;;;;;;;7.30;2.30;;;;;;;;;;5129827;28;20489;-55
2021/07/29 09:25:07;;;;;;;8.57;4.10;;;;;;;;;;5138423;28;20494;-58
2021/07/29 09:28:02;;;;;;;5.03;1.77;;;;;;;;;;5137981;28;20462;-60
2021/07/29 09:30:31;;;;;;;6.80;1.80;;;;;;;;;;5124394;28;20466;-58
2021/07/29 09:33:00;;;;;;;3.60;1.90;;;;;;;;;;5125262;28;20430;-57
2021/07/29 09:35:39;;;;;;;9.53;1.97;;;;;;;;;;5137438;28;20427;-56
2021/07/29 09:38:07;;;;;;;4.87;1.50;;;;;;;;;;5117143;28;20455;-57
2021/07/29 09:41:12;;;;;;;7.50;1.40;;;;;;;;;;5121331;28;20462;-58
2021/07/29 09:43:45;;;;;;;3.93;1.57;;;;;;;;;;5123961;28;20473;-58
2021/07/29 09:46:28;;;;;;;8.70;1.80;;;;;;;;;;5134532;28;20983;-58
2021/07/29 09:49:02;;;;;;;4.33;1.80;;;;;;;;;;5127713;28;20468;-57
2021/07/29 09:51:31;;;;;;;5.70;2.10;;;;;;;;;;5118617;28;20509;-58
2021/07/29 09:54:00;;;;;;;4.93;2.23;;;;;;;;;;5135548;28;20465;-55
2021/07/29 09:56:28;;;;;;;7.63;1.73;;;;;;;;;;5124338;28;20450;-58
2021/07/29 09:58:56;;;;;;;7.20;2.00;;;;;;;;;;5136963;28;20442;-58
2021/07/29 10:01:25;;;;;;;5.07;2.00;;;;;;;;;;5136430;28;20450;-57
2021/07/29 10:03:56;;;;;;;6.17;1.60;;;;;;;;;;5137962;28;20461;-57
2021/07/29 10:06:24;;;;;;;4.67;1.90;;;;;;;;;;5136967;28;20438;-57
2021/07/29 10:11:59;;;;;;;4.73;1.60;;;;;;;;;;5134574;28;20477;-58
2021/07/29 10:14:46;;;;;;;3.20;1.40;;;;;;;;;;5118076;28;20442;-55
2021/07/29 10:20:23;;;;;;;6.23;2.40;;;;;;;;;;5127280;28;20484;-56
2021/07/29 10:23:11;;;;;;;7.00;1.90;;;;;;;;;;5121171;28;20446;-56
2021/07/29 10:25:53;;;;;;;6.17;1.77;;;;;;;;;;5114934;28;20509;-58
2021/07/29 10:28:24;;;;;;;6.10;2.00;;;;;;;;;;5121179;28;20438;-57
2021/07/29 10:31:06;;;;;;;4.10;2.00;;;;;;;;;;5115496;28;20452;-57
2021/07/29 10:33:34;;;;;;;8.90;2.37;;;;;;;;;;5108884;28;20554;-59
2021/07/29 10:36:03;;;;;;;4.37;2.13;;;;;;;;;;5115473;28;20458;-58
2021/07/29 10:38:52;;;;;;;6.80;2.50;;;;;;;;;;5115377;28;20439;-57
2021/07/29 10:41:38;;;;;;;6.70;2.00;;;;;;;;;;5124889;28;20482;-59
2021/07/29 10:44:31;;;;;;;6.10;2.90;;;;;;;;;;5136081;28;20471;-62
2021/07/29 10:50:23;;;;;;;5.47;2.00;;;;;;;;;;5116446;28;20455;-59
2021/07/29 10:52:53;;;;;;;3.77;2.37;;;;;;;;;;5118420;28;20457;-58
2021/07/29 10:55:30;;;;;;;3.97;1.70;;;;;;;;;;5132850;28;20492;-59
2021/07/29 10:58:01;;;;;;;8.50;1.83;;;;;;;;;;5132511;28;20465;-59
2021/07/29 11:00:33;;;;;;;6.23;1.73;;;;;;;;;;5133245;28;20462;-59
2021/07/29 11:03:09;;;;;;;8.40;2.17;;;;;;;;;;5132480;28;20525;-57
2021/07/29 11:05:43;;;;;;;7.30;2.10;;;;;;;;;;5130015;28;20494;-61
2021/07/29 11:08:14;;;;;;;3.63;1.33;;;;;;;;;;5112148;28;20471;-60
2021/07/29 11:10:52;;;;;;;6.67;2.50;;;;;;;;;;5115297;28;20507;-60
2021/07/29 11:13:22;;;;;;;4.40;2.10;;;;;;;;;;5109072;28;20454;-60
2021/07/29 11:15:49;;;;;;;6.30;1.77;;;;;;;;;;5112292;28;20490;-58
2021/07/29 11:18:19;;;;;;;5.73;1.70;;;;;;;;;;5110991;28;20524;-60
2021/07/29 11:20:57;;;;;;;3.60;1.63;;;;;;;;;;5112188;28;20438;-58
2021/07/29 11:23:37;;;;;;;6.40;2.50;;;;;;;;;;5111203;28;20455;-59
2021/07/29 11:26:05;;;;;;;7.63;2.03;;;;;;;;;;5112156;28;20509;-60
2021/07/29 11:29:07;;;;;;;5.40;1.73;;;;;;;;;;5112138;28;20670;-61
2021/07/29 11:31:34;;;;;;;4.27;1.77;;;;;;;;;;5112554;28;20459;-60
2021/07/29 11:34:02;;;;;;;4.73;1.83;;;;;;;;;;5112763;28;20553;-59
2021/07/29 11:36:31;;;;;;;5.80;1.90;;;;;;;;;;5120272;28;20415;-59
2021/07/29 11:39:01;;;;;;;2.87;1.50;;;;;;;;;;5124282;28;20450;-62
2021/07/29 11:41:52;;;;;;;4.00;2.13;;;;;;;;;;5111752;28;20482;-60
2021/07/29 11:44:21;;;;;;;8.77;2.97;;;;;;;;;;5132387;28;20442;-58
2021/07/29 11:46:56;;;;;;;6.73;2.20;;;;;;;;;;5126755;28;20461;-61
2021/07/29 11:49:50;;;;;;;7.33;2.57;;;;;;;;;;5113236;28;20455;-59
2021/07/29 11:52:18;;;;;;;9.67;2.23;;;;;;;;;;5112933;28;20721;-58
2021/07/29 11:54:47;;;;;;;5.80;2.63;;;;;;;;;;5112668;28;20423;-58
2021/07/29 11:57:31;;;;;;;5.70;2.30;;;;;;;;;;5114700;28;20526;-59
2021/07/29 11:59:58;;;;;;;5.40;2.27;;;;;;;;;;5132720;28;20422;-60
2021/07/29 12:02:39;;;;;;;9.60;2.20;;;;;;;;;;5115814;28;20525;-59
2021/07/29 12:05:11;;;;;;;4.53;1.93;;;;;;;;;;5111399;28;20506;-60
2021/07/29 12:07:43;;;;;;;5.90;2.90;;;;;;;;;;5119021;28;20463;-61
2021/07/29 12:10:15;;;;;;;4.33;2.70;;;;;;;;;;5123485;28;20459;-61
2021/07/29 12:12:42;;;;;;;8.30;2.10;;;;;;;;;;5122973;28;20496;-59
2021/07/29 12:15:10;;;;;;;6.33;2.90;;;;;;;;;;5126647;28;20450;-59
2021/07/29 12:17:38;;;;;;;7.50;2.30;;;;;;;;;;5133449;28;20453;-58
2021/07/29 12:20:14;;;;;;;5.40;2.00;;;;;;;;;;5116468;28;20473;-59
2021/07/29 12:22:43;;;;;;;5.77;1.90;;;;;;;;;;5113158;28;20451;-59
2021/07/29 12:25:25;;;;;;;6.10;2.30;;;;;;;;;;5117736;28;20509;-59
2021/07/29 12:27:59;;;;;;;5.10;3.20;;;;;;;;;;5132690;28;20455;-59
2021/07/29 12:30:38;;;;;;;6.20;2.20;;;;;;;;;;5116585;28;20450;-59
2021/07/29 12:33:19;;;;;;;7.00;2.23;;;;;;;;;;5116598;28;20461;-57
2021/07/29 12:35:57;;;;;;;5.17;2.80;;;;;;;;;;5123110;28;20599;-59
2021/07/29 12:38:29;;;;;;;7.27;2.50;;;;;;;;;;5116322;28;20431;-60
2021/07/29 12:40:57;;;;;;;11.93;2.60;;;;;;;;;;5125183;28;20558;-60
2021/07/29 12:43:27;;;;;;;7.80;2.80;;;;;;;;;;5119662;28;20450;-59
2021/07/29 12:45:56;;;;;;;10.30;2.57;;;;;;;;;;5136227;28;20498;-60
2021/07/29 12:48:24;;;;;;;5.50;2.10;;;;;;;;;;5125628;28;20457;-58
2021/07/29 12:50:52;;;;;;;6.23;3.37;;;;;;;;;;5115823;28;20436;-58
2021/07/29 12:53:23;;;;;;;7.80;2.47;;;;;;;;;;5126509;28;20451;-58
2021/07/29 12:55:51;;;;;;;9.50;2.70;;;;;;;;;;5130308;28;20462;-59
2021/07/29 12:58:18;;;;;;;3.60;2.20;;;;;;;;;;5128468;28;20494;-58
2021/07/29 13:00:53;;;;;;;7.97;2.50;;;;;;;;;;5127656;28;20454;-57
2021/07/29 13:03:27;;;;;;;7.60;2.40;;;;;;;;;;5135648;28;20514;-58
2021/07/29 13:05:55;;;;;;;6.30;3.20;;;;;;;;;;5128300;28;20509;-59
2021/07/29 13:08:31;;;;;;;6.80;2.40;;;;;;;;;;5129023;28;20484;-59
2021/07/29 13:11:00;;;;;;;4.80;2.20;;;;;;;;;;5124736;28;20725;-60
2021/07/29 13:13:31;;;;;;;9.83;3.40;;;;;;;;;;5118665;28;20466;-59
2021/07/29 13:16:09;;;;;;;5.47;2.70;;;;;;;;;;5111790;28;20458;-60
2021/07/29 13:18:37;;;;;;;6.83;2.30;;;;;;;;;;5131876;28;20517;-60
2021/07/29 13:21:05;;;;;;;4.87;2.70;;;;;;;;;;5131989;28;20478;-60
2021/07/29 13:23:48;;;;;;;7.70;2.33;;;;;;;;;;5128159;28;20463;-59
2021/07/29 13:26:20;;;;;;;5.30;2.97;;;;;;;;;;5124268;28;20510;-59
2021/07/29 13:28:48;;;;;;;7.70;3.20;;;;;;;;;;5132133;28;20524;-55
2021/07/29 13:31:34;;;;;;;7.23;3.20;;;;;;;;;;5128600;28;20446;-60
2021/07/29 13:34:10;;;;;;;7.10;2.90;;;;;;;;;;5134375;28;20450;-60
2021/07/29 13:36:41;;;;;;;7.87;3.07;;;;;;;;;;5130717;28;20442;-60
2021/07/29 13:39:41;;;;;;;7.53;2.90;;;;;;;;;;5131528;28;20458;-61
2021/07/29 13:42:09;;;;;;;8.40;2.67;;;;;;;;;;5130961;28;20443;-57
2021/07/29 13:44:44;;;;;;;3.07;1.70;;;;;;;;;;5128136;28;20463;-60
2021/07/29 13:47:11;;;;;;;11.10;3.30;;;;;;;;;;5130697;28;20451;-60
2021/07/29 13:49:43;;;;;;;5.67;2.70;;;;;;;;;;5124331;28;20435;-60
2021/07/29 13:52:14;;;;;;;6.87;2.00;;;;;;;;;;5127753;28;20528;-58
2021/07/29 13:54:57;;;;;;;8.27;4.00;;;;;;;;;;5116896;28;20454;-60
2021/07/29 13:57:39;;;;;;;4.60;2.03;;;;;;;;;;5118265;28;20447;-60
2021/07/29 14:00:08;;;;;;;4.47;1.83;;;;;;;;;;5123939;28;20463;-60
2021/07/29 14:06:11;;;;;;;6.70;2.60;;;;;;;;;;5112643;28;20546;-60
2021/07/29 14:08:45;;;;;;;8.83;2.33;;;;;;;;;;5127962;28;20542;-59
2021/07/29 14:11:14;;;;;;;7.50;2.73;;;;;;;;;;5135402;28;20454;-59
2021/07/29 14:13:42;;;;;;;6.40;2.30;;;;;;;;;;5116332;28;20456;-59
2021/07/29 14:16:10;;;;;;;9.90;6.03;;;;;;;;;;5115567;28;20443;-60
2021/07/29 14:18:48;;;;;;;10.80;3.03;;;;;;;;;;5136365;28;20431;-59
2021/07/29 14:21:28;;;;;;;5.57;3.57;;;;;;;;;;5113663;28;20454;-59
2021/07/29 14:23:56;;;;;;;10.23;2.40;;;;;;;;;;5129395;28;20463;-61
2021/07/29 14:26:26;;;;;;;7.70;2.37;;;;;;;;;;5126892;28;20483;-60
2021/07/29 14:28:59;;;;;;;5.13;2.23;;;;;;;;;;5122586;28;20462;-62
2021/07/29 14:31:28;;;;;;;6.90;2.30;;;;;;;;;;5127585;28;20454;-60
2021/07/29 14:33:56;;;;;;;8.37;3.00;;;;;;;;;;5135035;28;20466;-61
2021/07/29 14:36:25;;;;;;;11.03;3.23;;;;;;;;;;5134835;28;20847;-56
2021/07/29 14:39:11;;;;;;;9.17;3.00;;;;;;;;;;5120686;28;20477;-62
2021/07/29 14:41:38;;;;;;;6.23;2.40;;;;;;;;;;5114331;28;20498;-58
2021/07/29 14:44:06;;;;;;;6.27;2.00;;;;;;;;;;5114602;28;20466;-58
2021/07/29 14:49:23;;;;;;;5.27;2.17;;;;;;;;;;5134926;28;20908;-60
2021/07/29 14:51:57;;;;;;;6.60;2.20;;;;;;;;;;5122191;28;20458;-60
2021/07/29 14:55:00;;;;;;;4.10;1.70;;;;;;;;;;5117514;28;20878;-61
2021/07/29 16:08:03;;;;;;;8.50;2.57;;;;;;;;;;5113272;28;20458;-60
2021/07/29 16:10:34;;;;;;;6.50;3.33;;;;;;;;;;5132555;28;20533;-60
2021/07/29 16:13:05;;;;;;;6.17;2.57;;;;;;;;;;5135688;28;20450;-61
2021/07/29 16:15:34;;;;;;;4.70;2.30;;;;;;;;;;5134137;28;20435;-59
2021/07/29 16:18:07;;;;;;;11.30;3.60;;;;;;;;;;5120443;28;20459;-60
2021/07/29 16:20:41;;;;;;;6.80;2.50;;;;;;;;;;5133357;28;20462;-58
2021/07/29 16:23:10;;;;;;;5.20;2.20;;;;;;;;;;5115505;28;20580;-61
2021/07/29 16:25:41;;;;;;;7.20;4.53;;;;;;;;;;5116659;28;20513;-64
2021/07/29 16:28:13;;;;;;;5.20;2.57;;;;;;;;;;5116509;28;20450;-60
2021/07/29 16:30:48;;;;;;;6.93;3.67;;;;;;;;;;5125033;28;20476;-59
2021/07/29 16:36:39;;;;;;;8.40;3.00;;;;;;;;;;5112207;28;20523;-59
2021/07/29 16:39:11;;;;;;;5.97;2.73;;;;;;;;;;5116829;28;20469;-57
2021/07/29 16:41:43;;;;;;;7.57;3.10;;;;;;;;;;5116305;28;20454;-60
2021/07/29 16:44:10;;;;;;;6.20;3.20;;;;;;;;;;5117976;28;20468;-60
2021/07/29 16:46:47;;;;;;;17.37;9.77;;;;;;;;;;5133494;28;20512;-59
2021/07/29 16:49:17;;;;;;;6.73;3.30;;;;;;;;;;5128708;28;20467;-61
2021/07/29 16:51:47;;;;;;;6.13;4.10;;;;;;;;;;5136765;28;20454;-61
2021/07/29 16:54:17;;;;;;;7.80;2.50;;;;;;;;;;5125247;28;20490;-61
2021/07/29 16:57:02;;;;;;;14.20;7.30;;;;;;;;;;5115549;28;20456;-59
2021/07/29 16:59:54;;;;;;;10.70;6.20;;;;;;;;;;5124192;28;20458;-59
2021/07/29 17:02:24;;;;;;;8.07;2.77;;;;;;;;;;5117871;28;20455;-60
2021/07/29 17:04:53;;;;;;;5.00;2.10;;;;;;;;;;5123036;28;20455;-59
2021/07/29 17:07:22;;;;;;;5.77;3.30;;;;;;;;;;5132854;28;20613;-59